sensor_id;sensor_type;location;lat;lon;timestamp;P1;durP1;ratioP1;P2;durP2;ratioP2
83103;SDS011;72975;48.134;11.630;2023-12-20T00:00:26;4.32;;;1.80;;
83103;SDS011;72975;48.134;11.630;2023-12-20T00:02:53;4.75;;;1.92;;
83103;SDS011;72975;48.134;11.630;2023-12-20T00:05:21;4.43;;;2.45;;
83103;SDS011;72975;48.134;11.630;2023-12-20T00:07:48;4.20;;;2.03;;
83103;SDS011;72975;48.134;11.630;2023-12-20T00:10:16;3.90;;;1.90;;
83103;SDS011;72975;48.134;11.630;2023-12-20T00:12:44;5.25;;;2.05;;
83103;SDS011;72975;48.134;11.630;2023-12-20T00:15:12;4.65;;;1.92;;
83103;SDS011;72975;48.134;11.630;2023-12-20T00:17:41;4.43;;;1.92;;
83103;SDS011;72975;48.134;11.630;2023-12-20T00:20:10;4.05;;;1.98;;
83103;SDS011;72975;48.134;11.630;2023-12-20T00:22:40;4.45;;;1.88;;
83103;SDS011;72975;48.134;11.630;2023-12-20T00:25:07;4.32;;;2.47;;
83103;SDS011;72975;48.134;11.630;2023-12-20T00:27:35;5.57;;;1.90;;
83103;SDS011;72975;48.134;11.630;2023-12-20T00:30:03;4.38;;;2.08;;
83103;SDS011;72975;48.134;11.630;2023-12-20T00:32:31;4.10;;;1.70;;
83103;SDS011;72975;48.134;11.630;2023-12-20T00:34:59;3.85;;;1.80;;
83103;SDS011;72975;48.134;11.630;2023-12-20T00:37:34;3.42;;;1.63;;
83103;SDS011;72975;48.134;11.630;2023-12-20T00:40:05;3.72;;;1.98;;
83103;SDS011;72975;48.134;11.630;2023-12-20T00:42:33;3.90;;;2.05;;
83103;SDS011;72975;48.134;11.630;2023-12-20T00:45:00;4.55;;;1.73;;
83103;SDS011;72975;48.134;11.630;2023-12-20T00:47:29;4.38;;;1.92;;
83103;SDS011;72975;48.134;11.630;2023-12-20T00:50:04;3.58;;;1.60;;
83103;SDS011;72975;48.134;11.630;2023-12-20T00:52:33;4.18;;;1.83;;
83103;SDS011;72975;48.134;11.630;2023-12-20T00:55:00;4.65;;;1.60;;
83103;SDS011;72975;48.134;11.630;2023-12-20T00:57:28;4.07;;;1.58;;
83103;SDS011;72975;48.134;11.630;2023-12-20T00:59:57;6.03;;;1.83;;
83103;SDS011;72975;48.134;11.630;2023-12-20T01:02:25;3.58;;;1.30;;
83103;SDS011;72975;48.134;11.630;2023-12-20T01:04:52;3.83;;;1.58;;
83103;SDS011;72975;48.134;11.630;2023-12-20T01:07:20;3.42;;;1.58;;
83103;SDS011;72975;48.134;11.630;2023-12-20T01:09:53;2.60;;;1.20;;
83103;SDS011;72975;48.134;11.630;2023-12-20T01:12:20;2.92;;;1.33;;
83103;SDS011;72975;48.134;11.630;2023-12-20T01:14:48;4.47;;;1.60;;
83103;SDS011;72975;48.134;11.630;2023-12-20T01:17:16;4.18;;;1.63;;
83103;SDS011;72975;48.134;11.630;2023-12-20T01:19:43;3.17;;;1.30;;
83103;SDS011;72975;48.134;11.630;2023-12-20T01:22:11;3.00;;;1.48;;
83103;SDS011;72975;48.134;11.630;2023-12-20T01:24:39;2.83;;;1.17;;
83103;SDS011;72975;48.134;11.630;2023-12-20T01:27:10;3.03;;;1.30;;
83103;SDS011;72975;48.134;11.630;2023-12-20T01:29:38;2.85;;;1.60;;
83103;SDS011;72975;48.134;11.630;2023-12-20T01:32:06;3.42;;;1.30;;
83103;SDS011;72975;48.134;11.630;2023-12-20T01:34:33;2.90;;;1.42;;
83103;SDS011;72975;48.134;11.630;2023-12-20T01:37:01;4.05;;;1.30;;
83103;SDS011;72975;48.134;11.630;2023-12-20T01:39:31;3.30;;;1.33;;
83103;SDS011;72975;48.134;11.630;2023-12-20T01:41:59;3.92;;;1.70;;
83103;SDS011;72975;48.134;11.630;2023-12-20T01:44:27;3.15;;;1.63;;
83103;SDS011;72975;48.134;11.630;2023-12-20T01:46:54;3.55;;;1.52;;
83103;SDS011;72975;48.134;11.630;2023-12-20T01:49:22;3.35;;;1.45;;
83103;SDS011;72975;48.134;11.630;2023-12-20T01:51:52;3.05;;;1.30;;
83103;SDS011;72975;48.134;11.630;2023-12-20T01:54:21;3.33;;;1.55;;
83103;SDS011;72975;48.134;11.630;2023-12-20T01:56:49;3.03;;;1.17;;
83103;SDS011;72975;48.134;11.630;2023-12-20T01:59:20;3.20;;;1.30;;
83103;SDS011;72975;48.134;11.630;2023-12-20T02:01:48;3.40;;;1.70;;
83103;SDS011;72975;48.134;11.630;2023-12-20T02:04:16;2.90;;;1.45;;
83103;SDS011;72975;48.134;11.630;2023-12-20T02:06:49;4.53;;;1.67;;
83103;SDS011;72975;48.134;11.630;2023-12-20T02:09:22;3.05;;;1.15;;
83103;SDS011;72975;48.134;11.630;2023-12-20T02:11:49;2.92;;;1.17;;
83103;SDS011;72975;48.134;11.630;2023-12-20T02:14:17;2.83;;;1.20;;
83103;SDS011;72975;48.134;11.630;2023-12-20T02:16:45;3.15;;;1.45;;
83103;SDS011;72975;48.134;11.630;2023-12-20T02:19:13;3.38;;;1.13;;
83103;SDS011;72975;48.134;11.630;2023-12-20T02:21:49;2.53;;;1.10;;
83103;SDS011;72975;48.134;11.630;2023-12-20T02:24:18;2.95;;;1.13;;
83103;SDS011;72975;48.134;11.630;2023-12-20T02:26:46;2.45;;;1.17;;
83103;SDS011;72975;48.134;11.630;2023-12-20T02:29:16;2.63;;;1.08;;
83103;SDS011;72975;48.134;11.630;2023-12-20T02:31:43;2.53;;;1.25;;
83103;SDS011;72975;48.134;11.630;2023-12-20T02:34:11;2.72;;;1.00;;
83103;SDS011;72975;48.134;11.630;2023-12-20T02:36:40;1.65;;;0.90;;
83103;SDS011;72975;48.134;11.630;2023-12-20T02:39:07;3.55;;;1.17;;
83103;SDS011;72975;48.134;11.630;2023-12-20T02:41:38;2.05;;;1.00;;
83103;SDS011;72975;48.134;11.630;2023-12-20T02:44:06;2.20;;;1.00;;
83103;SDS011;72975;48.134;11.630;2023-12-20T02:46:54;2.53;;;1.10;;
83103;SDS011;72975;48.134;11.630;2023-12-20T02:49:22;2.33;;;1.00;;
83103;SDS011;72975;48.134;11.630;2023-12-20T02:51:52;1.67;;;0.80;;
83103;SDS011;72975;48.134;11.630;2023-12-20T02:54:21;1.70;;;0.80;;
83103;SDS011;72975;48.134;11.630;2023-12-20T02:56:50;2.50;;;0.93;;
83103;SDS011;72975;48.134;11.630;2023-12-20T02:59:20;2.05;;;0.82;;
83103;SDS011;72975;48.134;11.630;2023-12-20T03:01:52;2.08;;;1.00;;
83103;SDS011;72975;48.134;11.630;2023-12-20T03:04:20;2.20;;;1.00;;
83103;SDS011;72975;48.134;11.630;2023-12-20T03:06:50;2.15;;;1.00;;
83103;SDS011;72975;48.134;11.630;2023-12-20T03:09:18;1.70;;;0.73;;
83103;SDS011;72975;48.134;11.630;2023-12-20T03:11:45;2.13;;;0.90;;
83103;SDS011;72975;48.134;11.630;2023-12-20T03:14:13;2.83;;;1.00;;
83103;SDS011;72975;48.134;11.630;2023-12-20T03:16:49;1.85;;;0.75;;
83103;SDS011;72975;48.134;11.630;2023-12-20T03:19:18;2.30;;;0.90;;
83103;SDS011;72975;48.134;11.630;2023-12-20T03:21:46;1.67;;;0.80;;
83103;SDS011;72975;48.134;11.630;2023-12-20T03:24:16;2.00;;;0.90;;
83103;SDS011;72975;48.134;11.630;2023-12-20T03:26:43;2.15;;;0.93;;
83103;SDS011;72975;48.134;11.630;2023-12-20T03:29:12;1.83;;;1.02;;
83103;SDS011;72975;48.134;11.630;2023-12-20T03:31:42;2.58;;;1.23;;
83103;SDS011;72975;48.134;11.630;2023-12-20T03:34:10;2.50;;;1.10;;
83103;SDS011;72975;48.134;11.630;2023-12-20T03:36:38;2.42;;;0.90;;
83103;SDS011;72975;48.134;11.630;2023-12-20T03:39:06;2.20;;;1.08;;
83103;SDS011;72975;48.134;11.630;2023-12-20T03:41:34;2.13;;;0.70;;
83103;SDS011;72975;48.134;11.630;2023-12-20T03:44:01;2.08;;;0.80;;
83103;SDS011;72975;48.134;11.630;2023-12-20T03:46:31;2.30;;;0.90;;
83103;SDS011;72975;48.134;11.630;2023-12-20T03:49:01;2.03;;;0.80;;
83103;SDS011;72975;48.134;11.630;2023-12-20T03:51:30;2.50;;;0.90;;
83103;SDS011;72975;48.134;11.630;2023-12-20T03:54:00;1.90;;;0.90;;
83103;SDS011;72975;48.134;11.630;2023-12-20T03:56:35;1.67;;;1.00;;
83103;SDS011;72975;48.134;11.630;2023-12-20T03:59:03;1.63;;;0.70;;
83103;SDS011;72975;48.134;11.630;2023-12-20T04:01:32;1.88;;;0.82;;
83103;SDS011;72975;48.134;11.630;2023-12-20T04:04:00;2.30;;;0.82;;
83103;SDS011;72975;48.134;11.630;2023-12-20T04:06:27;1.88;;;0.88;;
83103;SDS011;72975;48.134;11.630;2023-12-20T04:08:55;1.90;;;0.75;;
83103;SDS011;72975;48.134;11.630;2023-12-20T04:11:23;1.88;;;0.80;;
83103;SDS011;72975;48.134;11.630;2023-12-20T04:13:50;2.92;;;1.17;;
83103;SDS011;72975;48.134;11.630;2023-12-20T04:16:18;1.90;;;0.80;;
83103;SDS011;72975;48.134;11.630;2023-12-20T04:18:47;1.77;;;0.90;;
83103;SDS011;72975;48.134;11.630;2023-12-20T04:21:15;3.17;;;1.20;;
83103;SDS011;72975;48.134;11.630;2023-12-20T04:23:45;2.30;;;0.80;;
83103;SDS011;72975;48.134;11.630;2023-12-20T04:26:16;2.20;;;0.90;;
83103;SDS011;72975;48.134;11.630;2023-12-20T04:28:44;2.97;;;1.13;;
83103;SDS011;72975;48.134;11.630;2023-12-20T04:31:11;2.22;;;0.93;;
83103;SDS011;72975;48.134;11.630;2023-12-20T04:33:41;3.15;;;1.00;;
83103;SDS011;72975;48.134;11.630;2023-12-20T04:36:12;3.30;;;1.10;;
83103;SDS011;72975;48.134;11.630;2023-12-20T04:38:39;1.73;;;0.85;;
83103;SDS011;72975;48.134;11.630;2023-12-20T04:41:07;1.80;;;0.80;;
83103;SDS011;72975;48.134;11.630;2023-12-20T04:43:34;3.65;;;0.80;;
83103;SDS011;72975;48.134;11.630;2023-12-20T04:46:02;2.83;;;1.00;;
83103;SDS011;72975;48.134;11.630;2023-12-20T04:48:30;2.25;;;0.98;;
83103;SDS011;72975;48.134;11.630;2023-12-20T04:51:01;2.53;;;0.95;;
83103;SDS011;72975;48.134;11.630;2023-12-20T04:53:28;1.60;;;0.70;;
83103;SDS011;72975;48.134;11.630;2023-12-20T04:55:56;2.45;;;1.02;;
83103;SDS011;72975;48.134;11.630;2023-12-20T04:58:24;2.35;;;1.23;;
83103;SDS011;72975;48.134;11.630;2023-12-20T05:00:54;3.55;;;1.55;;
83103;SDS011;72975;48.134;11.630;2023-12-20T05:03:22;3.67;;;1.20;;
83103;SDS011;72975;48.134;11.630;2023-12-20T05:05:50;2.53;;;1.20;;
83103;SDS011;72975;48.134;11.630;2023-12-20T05:08:18;2.45;;;1.00;;
83103;SDS011;72975;48.134;11.630;2023-12-20T05:10:47;3.90;;;1.10;;
83103;SDS011;72975;48.134;11.630;2023-12-20T05:13:15;2.83;;;1.40;;
83103;SDS011;72975;48.134;11.630;2023-12-20T05:15:43;2.88;;;1.23;;
83103;SDS011;72975;48.134;11.630;2023-12-20T05:18:13;2.72;;;1.30;;
83103;SDS011;72975;48.134;11.630;2023-12-20T05:20:40;2.33;;;1.13;;
83103;SDS011;72975;48.134;11.630;2023-12-20T05:23:08;2.72;;;1.15;;
83103;SDS011;72975;48.134;11.630;2023-12-20T05:25:36;2.65;;;1.27;;
83103;SDS011;72975;48.134;11.630;2023-12-20T05:28:03;2.78;;;1.35;;
83103;SDS011;72975;48.134;11.630;2023-12-20T05:30:32;2.40;;;1.10;;
83103;SDS011;72975;48.134;11.630;2023-12-20T05:32:59;3.30;;;1.73;;
83103;SDS011;72975;48.134;11.630;2023-12-20T05:35:27;2.40;;;1.20;;
83103;SDS011;72975;48.134;11.630;2023-12-20T05:38:00;3.70;;;1.40;;
83103;SDS011;72975;48.134;11.630;2023-12-20T05:40:27;4.28;;;1.73;;
83103;SDS011;72975;48.134;11.630;2023-12-20T05:42:55;3.00;;;1.42;;
83103;SDS011;72975;48.134;11.630;2023-12-20T05:45:23;3.00;;;1.50;;
83103;SDS011;72975;48.134;11.630;2023-12-20T05:47:55;3.10;;;1.00;;
83103;SDS011;72975;48.134;11.630;2023-12-20T05:50:23;2.78;;;1.42;;
83103;SDS011;72975;48.134;11.630;2023-12-20T05:52:50;2.50;;;1.30;;
83103;SDS011;72975;48.134;11.630;2023-12-20T05:55:18;3.42;;;1.40;;
83103;SDS011;72975;48.134;11.630;2023-12-20T05:57:53;2.75;;;1.08;;
83103;SDS011;72975;48.134;11.630;2023-12-20T06:00:34;3.30;;;1.40;;
83103;SDS011;72975;48.134;11.630;2023-12-20T06:03:06;2.85;;;1.27;;
83103;SDS011;72975;48.134;11.630;2023-12-20T06:05:34;2.05;;;1.02;;
83103;SDS011;72975;48.134;11.630;2023-12-20T06:08:02;2.63;;;1.20;;
83103;SDS011;72975;48.134;11.630;2023-12-20T06:10:29;2.63;;;0.93;;
83103;SDS011;72975;48.134;11.630;2023-12-20T06:12:57;3.08;;;1.50;;
83103;SDS011;72975;48.134;11.630;2023-12-20T06:15:27;3.47;;;1.40;;
83103;SDS011;72975;48.134;11.630;2023-12-20T06:17:54;3.05;;;1.20;;
83103;SDS011;72975;48.134;11.630;2023-12-20T06:20:21;2.40;;;1.30;;
83103;SDS011;72975;48.134;11.630;2023-12-20T06:22:49;2.78;;;1.55;;
83103;SDS011;72975;48.134;11.630;2023-12-20T06:25:17;2.33;;;1.00;;
83103;SDS011;72975;48.134;11.630;2023-12-20T06:27:45;3.53;;;1.60;;
83103;SDS011;72975;48.134;11.630;2023-12-20T06:30:21;3.20;;;1.30;;
83103;SDS011;72975;48.134;11.630;2023-12-20T06:32:54;2.78;;;1.27;;
83103;SDS011;72975;48.134;11.630;2023-12-20T06:35:26;2.60;;;1.60;;
83103;SDS011;72975;48.134;11.630;2023-12-20T06:38:02;2.72;;;1.20;;
83103;SDS011;72975;48.134;11.630;2023-12-20T06:40:35;3.72;;;1.40;;
83103;SDS011;72975;48.134;11.630;2023-12-20T06:43:02;2.50;;;1.20;;
83103;SDS011;72975;48.134;11.630;2023-12-20T06:45:48;2.88;;;1.30;;
83103;SDS011;72975;48.134;11.630;2023-12-20T06:48:31;3.63;;;1.38;;
83103;SDS011;72975;48.134;11.630;2023-12-20T06:51:04;3.45;;;1.67;;
83103;SDS011;72975;48.134;11.630;2023-12-20T06:53:33;2.97;;;1.35;;
83103;SDS011;72975;48.134;11.630;2023-12-20T06:56:07;3.10;;;1.20;;
83103;SDS011;72975;48.134;11.630;2023-12-20T06:58:47;2.30;;;1.40;;
83103;SDS011;72975;48.134;11.630;2023-12-20T07:01:18;3.10;;;1.10;;
83103;SDS011;72975;48.134;11.630;2023-12-20T07:04:09;2.97;;;1.23;;
83103;SDS011;72975;48.134;11.630;2023-12-20T07:06:38;2.78;;;1.45;;
83103;SDS011;72975;48.134;11.630;2023-12-20T07:09:10;3.28;;;1.30;;
83103;SDS011;72975;48.134;11.630;2023-12-20T07:11:39;2.33;;;1.10;;
83103;SDS011;72975;48.134;11.630;2023-12-20T07:14:09;2.30;;;1.13;;
83103;SDS011;72975;48.134;11.630;2023-12-20T07:16:40;2.38;;;1.02;;
83103;SDS011;72975;48.134;11.630;2023-12-20T07:19:07;1.83;;;0.90;;
83103;SDS011;72975;48.134;11.630;2023-12-20T07:21:40;2.40;;;1.17;;
83103;SDS011;72975;48.134;11.630;2023-12-20T07:24:21;2.20;;;1.02;;
83103;SDS011;72975;48.134;11.630;2023-12-20T07:26:49;2.33;;;1.15;;
83103;SDS011;72975;48.134;11.630;2023-12-20T07:29:17;1.58;;;0.70;;
83103;SDS011;72975;48.134;11.630;2023-12-20T07:31:52;1.58;;;0.73;;
83103;SDS011;72975;48.134;11.630;2023-12-20T07:34:22;2.15;;;1.00;;
83103;SDS011;72975;48.134;11.630;2023-12-20T07:36:50;2.78;;;1.00;;
83103;SDS011;72975;48.134;11.630;2023-12-20T07:39:20;3.38;;;0.90;;
83103;SDS011;72975;48.134;11.630;2023-12-20T07:41:48;1.90;;;0.70;;
83103;SDS011;72975;48.134;11.630;2023-12-20T07:44:20;1.60;;;0.70;;
83103;SDS011;72975;48.134;11.630;2023-12-20T07:46:50;1.92;;;1.15;;
83103;SDS011;72975;48.134;11.630;2023-12-20T07:49:21;2.22;;;0.93;;
83103;SDS011;72975;48.134;11.630;2023-12-20T07:51:49;2.13;;;0.93;;
83103;SDS011;72975;48.134;11.630;2023-12-20T07:54:16;2.20;;;1.08;;
83103;SDS011;72975;48.134;11.630;2023-12-20T07:56:46;1.60;;;1.10;;
83103;SDS011;72975;48.134;11.630;2023-12-20T07:59:14;2.00;;;0.95;;
83103;SDS011;72975;48.134;11.630;2023-12-20T08:01:56;2.40;;;1.13;;
83103;SDS011;72975;48.134;11.630;2023-12-20T08:04:24;1.73;;;0.90;;
83103;SDS011;72975;48.134;11.630;2023-12-20T08:06:52;2.03;;;0.73;;
83103;SDS011;72975;48.134;11.630;2023-12-20T08:09:19;2.55;;;1.23;;
83103;SDS011;72975;48.134;11.630;2023-12-20T08:11:49;4.03;;;1.20;;
83103;SDS011;72975;48.134;11.630;2023-12-20T08:14:19;2.95;;;1.10;;
83103;SDS011;72975;48.134;11.630;2023-12-20T08:16:47;2.28;;;1.00;;
83103;SDS011;72975;48.134;11.630;2023-12-20T08:19:14;2.38;;;1.00;;
83103;SDS011;72975;48.134;11.630;2023-12-20T08:21:42;2.95;;;1.10;;
83103;SDS011;72975;48.134;11.630;2023-12-20T08:24:12;2.00;;;0.80;;
83103;SDS011;72975;48.134;11.630;2023-12-20T08:26:39;2.72;;;1.17;;
83103;SDS011;72975;48.134;11.630;2023-12-20T08:29:09;2.88;;;0.70;;
83103;SDS011;72975;48.134;11.630;2023-12-20T08:31:41;2.58;;;1.10;;
83103;SDS011;72975;48.134;11.630;2023-12-20T08:34:20;2.00;;;0.85;;
83103;SDS011;72975;48.134;11.630;2023-12-20T08:36:50;1.90;;;1.10;;
83103;SDS011;72975;48.134;11.630;2023-12-20T08:39:30;2.42;;;1.10;;
83103;SDS011;72975;48.134;11.630;2023-12-20T08:42:03;3.60;;;1.52;;
83103;SDS011;72975;48.134;11.630;2023-12-20T08:44:30;3.10;;;1.23;;
83103;SDS011;72975;48.134;11.630;2023-12-20T08:47:02;2.20;;;1.17;;
83103;SDS011;72975;48.134;11.630;2023-12-20T08:49:32;2.08;;;1.00;;
83103;SDS011;72975;48.134;11.630;2023-12-20T08:52:00;2.20;;;1.05;;
83103;SDS011;72975;48.134;11.630;2023-12-20T08:54:28;2.08;;;1.15;;
83103;SDS011;72975;48.134;11.630;2023-12-20T08:56:55;2.22;;;1.10;;
83103;SDS011;72975;48.134;11.630;2023-12-20T08:59:25;1.90;;;0.80;;
83103;SDS011;72975;48.134;11.630;2023-12-20T09:01:56;2.10;;;0.90;;
83103;SDS011;72975;48.134;11.630;2023-12-20T09:04:23;2.65;;;1.23;;
83103;SDS011;72975;48.134;11.630;2023-12-20T09:06:56;2.25;;;1.25;;
83103;SDS011;72975;48.134;11.630;2023-12-20T09:09:27;1.75;;;0.82;;
83103;SDS011;72975;48.134;11.630;2023-12-20T09:11:57;1.58;;;0.90;;
83103;SDS011;72975;48.134;11.630;2023-12-20T09:14:26;1.67;;;0.70;;
83103;SDS011;72975;48.134;11.630;2023-12-20T09:16:54;1.73;;;0.85;;
83103;SDS011;72975;48.134;11.630;2023-12-20T09:22:03;2.38;;;0.93;;
83103;SDS011;72975;48.134;11.630;2023-12-20T09:24:32;2.42;;;1.05;;
83103;SDS011;72975;48.134;11.630;2023-12-20T09:27:03;2.13;;;1.10;;
83103;SDS011;72975;48.134;11.630;2023-12-20T09:29:38;2.50;;;1.30;;
83103;SDS011;72975;48.134;11.630;2023-12-20T09:32:12;2.50;;;1.10;;
83103;SDS011;72975;48.134;11.630;2023-12-20T09:34:58;2.65;;;1.00;;
83103;SDS011;72975;48.134;11.630;2023-12-20T09:37:26;2.30;;;1.20;;
83103;SDS011;72975;48.134;11.630;2023-12-20T09:39:57;2.58;;;1.00;;
83103;SDS011;72975;48.134;11.630;2023-12-20T09:45:18;1.60;;;0.80;;
83103;SDS011;72975;48.134;11.630;2023-12-20T09:47:50;1.85;;;0.88;;
83103;SDS011;72975;48.134;11.630;2023-12-20T09:50:21;2.33;;;1.15;;
83103;SDS011;72975;48.134;11.630;2023-12-20T09:52:51;2.58;;;1.00;;
83103;SDS011;72975;48.134;11.630;2023-12-20T09:55:23;2.00;;;0.80;;
83103;SDS011;72975;48.134;11.630;2023-12-20T09:58:00;2.17;;;1.00;;
83103;SDS011;72975;48.134;11.630;2023-12-20T10:00:30;2.28;;;1.25;;
83103;SDS011;72975;48.134;11.630;2023-12-20T10:02:58;1.60;;;0.80;;
83103;SDS011;72975;48.134;11.630;2023-12-20T10:05:30;2.15;;;0.93;;
83103;SDS011;72975;48.134;11.630;2023-12-20T10:08:04;2.92;;;1.20;;
83103;SDS011;72975;48.134;11.630;2023-12-20T10:10:32;2.00;;;0.98;;
83103;SDS011;72975;48.134;11.630;2023-12-20T10:13:11;2.08;;;0.90;;
83103;SDS011;72975;48.134;11.630;2023-12-20T10:15:42;3.10;;;1.40;;
83103;SDS011;72975;48.134;11.630;2023-12-20T10:18:11;2.45;;;1.08;;
83103;SDS011;72975;48.134;11.630;2023-12-20T10:20:40;1.95;;;1.30;;
83103;SDS011;72975;48.134;11.630;2023-12-20T10:23:10;4.13;;;1.23;;
83103;SDS011;72975;48.134;11.630;2023-12-20T10:25:38;3.05;;;1.23;;
83103;SDS011;72975;48.134;11.630;2023-12-20T10:30:52;3.10;;;1.50;;
83103;SDS011;72975;48.134;11.630;2023-12-20T10:33:26;2.33;;;1.05;;
83103;SDS011;72975;48.134;11.630;2023-12-20T10:36:01;2.95;;;1.30;;
83103;SDS011;72975;48.134;11.630;2023-12-20T10:38:30;3.55;;;1.20;;
83103;SDS011;72975;48.134;11.630;2023-12-20T10:40:58;3.25;;;1.20;;
83103;SDS011;72975;48.134;11.630;2023-12-20T10:43:31;1.92;;;0.80;;
83103;SDS011;72975;48.134;11.630;2023-12-20T10:46:03;2.22;;;1.10;;
83103;SDS011;72975;48.134;11.630;2023-12-20T10:48:35;1.98;;;1.02;;
83103;SDS011;72975;48.134;11.630;2023-12-20T10:51:11;2.20;;;1.30;;
83103;SDS011;72975;48.134;11.630;2023-12-20T10:53:58;1.98;;;1.00;;
83103;SDS011;72975;48.134;11.630;2023-12-20T10:56:26;2.47;;;1.00;;
83103;SDS011;72975;48.134;11.630;2023-12-20T10:59:02;1.33;;;0.85;;
83103;SDS011;72975;48.134;11.630;2023-12-20T11:01:31;2.08;;;0.90;;
83103;SDS011;72975;48.134;11.630;2023-12-20T11:04:00;2.58;;;1.13;;
83103;SDS011;72975;48.134;11.630;2023-12-20T11:06:49;2.60;;;0.98;;
83103;SDS011;72975;48.134;11.630;2023-12-20T11:09:26;2.00;;;0.80;;
83103;SDS011;72975;48.134;11.630;2023-12-20T11:12:24;2.13;;;1.05;;
83103;SDS011;72975;48.134;11.630;2023-12-20T11:15:15;2.78;;;1.00;;
83103;SDS011;72975;48.134;11.630;2023-12-20T11:17:54;1.95;;;1.00;;
83103;SDS011;72975;48.134;11.630;2023-12-20T11:20:23;2.83;;;1.30;;
83103;SDS011;72975;48.134;11.630;2023-12-20T11:23:02;2.20;;;1.05;;
83103;SDS011;72975;48.134;11.630;2023-12-20T11:28:30;2.03;;;0.98;;
83103;SDS011;72975;48.134;11.630;2023-12-20T11:31:02;2.72;;;1.20;;
83103;SDS011;72975;48.134;11.630;2023-12-20T11:36:18;3.00;;;1.00;;
83103;SDS011;72975;48.134;11.630;2023-12-20T11:38:54;2.28;;;1.05;;
83103;SDS011;72975;48.134;11.630;2023-12-20T11:41:26;2.90;;;1.20;;
83103;SDS011;72975;48.134;11.630;2023-12-20T11:43:55;4.47;;;1.27;;
83103;SDS011;72975;48.134;11.630;2023-12-20T11:46:23;3.17;;;1.42;;
83103;SDS011;72975;48.134;11.630;2023-12-20T11:48:50;4.00;;;1.50;;
83103;SDS011;72975;48.134;11.630;2023-12-20T11:51:19;2.63;;;1.25;;
83103;SDS011;72975;48.134;11.630;2023-12-20T11:53:50;2.75;;;1.40;;
83103;SDS011;72975;48.134;11.630;2023-12-20T11:56:22;3.03;;;1.30;;
83103;SDS011;72975;48.134;11.630;2023-12-20T11:58:52;2.97;;;1.42;;
83103;SDS011;72975;48.134;11.630;2023-12-20T12:01:22;3.05;;;1.40;;
83103;SDS011;72975;48.134;11.630;2023-12-20T12:04:07;2.85;;;1.40;;
83103;SDS011;72975;48.134;11.630;2023-12-20T12:06:48;2.38;;;1.20;;
83103;SDS011;72975;48.134;11.630;2023-12-20T12:09:16;3.00;;;1.60;;
83103;SDS011;72975;48.134;11.630;2023-12-20T12:11:48;3.13;;;1.40;;
83103;SDS011;72975;48.134;11.630;2023-12-20T12:14:16;3.25;;;1.85;;
83103;SDS011;72975;48.134;11.630;2023-12-20T12:16:49;2.53;;;1.15;;
83103;SDS011;72975;48.134;11.630;2023-12-20T12:19:24;2.58;;;1.33;;
83103;SDS011;72975;48.134;11.630;2023-12-20T12:27:29;3.20;;;1.25;;
83103;SDS011;72975;48.134;11.630;2023-12-20T12:32:40;2.05;;;0.98;;
83103;SDS011;72975;48.134;11.630;2023-12-20T12:35:08;2.85;;;1.48;;
83103;SDS011;72975;48.134;11.630;2023-12-20T12:37:44;2.92;;;1.40;;
83103;SDS011;72975;48.134;11.630;2023-12-20T12:40:15;3.00;;;1.48;;
83103;SDS011;72975;48.134;11.630;2023-12-20T12:42:46;2.15;;;1.17;;
83103;SDS011;72975;48.134;11.630;2023-12-20T12:45:16;2.53;;;1.20;;
83103;SDS011;72975;48.134;11.630;2023-12-20T12:47:46;2.67;;;1.55;;
83103;SDS011;72975;48.134;11.630;2023-12-20T12:50:18;3.42;;;1.33;;
83103;SDS011;72975;48.134;11.630;2023-12-20T12:52:54;3.45;;;1.40;;
83103;SDS011;72975;48.134;11.630;2023-12-20T12:55:27;2.90;;;1.65;;
83103;SDS011;72975;48.134;11.630;2023-12-20T12:58:00;2.42;;;1.00;;
83103;SDS011;72975;48.134;11.630;2023-12-20T13:00:42;2.67;;;1.30;;
83103;SDS011;72975;48.134;11.630;2023-12-20T13:03:11;2.25;;;1.10;;
83103;SDS011;72975;48.134;11.630;2023-12-20T13:05:57;2.00;;;0.98;;
83103;SDS011;72975;48.134;11.630;2023-12-20T13:08:30;2.85;;;1.13;;
83103;SDS011;72975;48.134;11.630;2023-12-20T13:10:57;2.88;;;1.20;;
83103;SDS011;72975;48.134;11.630;2023-12-20T13:13:28;3.05;;;1.25;;
83103;SDS011;72975;48.134;11.630;2023-12-20T13:15:57;2.80;;;1.42;;
83103;SDS011;72975;48.134;11.630;2023-12-20T13:18:34;2.55;;;1.27;;
83103;SDS011;72975;48.134;11.630;2023-12-20T13:21:01;3.22;;;1.60;;
83103;SDS011;72975;48.134;11.630;2023-12-20T13:23:36;2.88;;;1.40;;
83103;SDS011;72975;48.134;11.630;2023-12-20T13:26:07;2.95;;;1.40;;
83103;SDS011;72975;48.134;11.630;2023-12-20T13:28:42;3.78;;;1.25;;
83103;SDS011;72975;48.134;11.630;2023-12-20T13:31:10;3.83;;;1.52;;
83103;SDS011;72975;48.134;11.630;2023-12-20T13:33:40;2.78;;;1.20;;
83103;SDS011;72975;48.134;11.630;2023-12-20T13:36:08;2.75;;;1.48;;
83103;SDS011;72975;48.134;11.630;2023-12-20T13:38:39;2.20;;;1.02;;
83103;SDS011;72975;48.134;11.630;2023-12-20T13:41:07;5.25;;;1.67;;
83103;SDS011;72975;48.134;11.630;2023-12-20T13:43:35;2.53;;;1.20;;
83103;SDS011;72975;48.134;11.630;2023-12-20T13:46:03;3.47;;;1.25;;
83103;SDS011;72975;48.134;11.630;2023-12-20T13:48:33;3.92;;;1.67;;
83103;SDS011;72975;48.134;11.630;2023-12-20T13:51:01;3.85;;;1.38;;
83103;SDS011;72975;48.134;11.630;2023-12-20T13:53:32;3.75;;;1.67;;
83103;SDS011;72975;48.134;11.630;2023-12-20T13:56:01;3.05;;;1.55;;
83103;SDS011;72975;48.134;11.630;2023-12-20T13:58:33;3.28;;;1.50;;
83103;SDS011;72975;48.134;11.630;2023-12-20T14:01:04;4.22;;;1.52;;
83103;SDS011;72975;48.134;11.630;2023-12-20T14:03:42;3.35;;;1.50;;
83103;SDS011;72975;48.134;11.630;2023-12-20T14:06:10;4.40;;;1.35;;
83103;SDS011;72975;48.134;11.630;2023-12-20T14:08:38;2.72;;;1.40;;
83103;SDS011;72975;48.134;11.630;2023-12-20T14:11:06;3.28;;;1.70;;
83103;SDS011;72975;48.134;11.630;2023-12-20T14:13:35;4.40;;;1.70;;
83103;SDS011;72975;48.134;11.630;2023-12-20T14:16:20;2.40;;;1.20;;
83103;SDS011;72975;48.134;11.630;2023-12-20T14:18:50;3.92;;;1.50;;
83103;SDS011;72975;48.134;11.630;2023-12-20T14:21:23;3.60;;;1.67;;
83103;SDS011;72975;48.134;11.630;2023-12-20T14:24:00;4.65;;;2.10;;
83103;SDS011;72975;48.134;11.630;2023-12-20T14:26:27;3.85;;;1.77;;
83103;SDS011;72975;48.134;11.630;2023-12-20T14:29:00;4.90;;;1.40;;
83103;SDS011;72975;48.134;11.630;2023-12-20T14:31:28;2.97;;;1.58;;
83103;SDS011;72975;48.134;11.630;2023-12-20T14:33:56;4.22;;;1.40;;
83103;SDS011;72975;48.134;11.630;2023-12-20T14:36:25;3.55;;;1.48;;
83103;SDS011;72975;48.134;11.630;2023-12-20T14:38:56;3.50;;;1.50;;
83103;SDS011;72975;48.134;11.630;2023-12-20T14:41:30;5.50;;;1.58;;
83103;SDS011;72975;48.134;11.630;2023-12-20T14:44:00;3.30;;;1.25;;
83103;SDS011;72975;48.134;11.630;2023-12-20T14:46:31;4.90;;;2.00;;
83103;SDS011;72975;48.134;11.630;2023-12-20T14:49:06;4.72;;;1.27;;
83103;SDS011;72975;48.134;11.630;2023-12-20T14:51:37;4.40;;;2.17;;
83103;SDS011;72975;48.134;11.630;2023-12-20T14:54:05;4.05;;;1.50;;
83103;SDS011;72975;48.134;11.630;2023-12-20T14:56:53;3.42;;;1.42;;
83103;SDS011;72975;48.134;11.630;2023-12-20T14:59:30;5.07;;;1.67;;
83103;SDS011;72975;48.134;11.630;2023-12-20T15:02:01;6.57;;;1.90;;
83103;SDS011;72975;48.134;11.630;2023-12-20T15:04:31;5.65;;;1.70;;
83103;SDS011;72975;48.134;11.630;2023-12-20T15:07:05;3.80;;;1.75;;
83103;SDS011;72975;48.134;11.630;2023-12-20T15:09:33;3.40;;;1.60;;
83103;SDS011;72975;48.134;11.630;2023-12-20T15:12:03;4.50;;;1.70;;
83103;SDS011;72975;48.134;11.630;2023-12-20T15:14:32;4.45;;;1.23;;